createdAt,value
2017-03-18T00:00:26.896Z,99.99
2017-03-18T00:01:27.177Z,99.99
2017-03-18T00:02:27.157Z,99.99
2017-03-18T00:03:27.157Z,99.99
2017-03-18T00:04:27.133Z,99.99
2017-03-18T00:05:26.807Z,99.99
2017-03-18T00:06:26.787Z,99.99
2017-03-18T00:07:27.062Z,99.99
2017-03-18T00:08:27.049Z,99.99
2017-03-18T00:09:27.044Z,99.99
2017-03-18T00:10:27.020Z,99.99
2017-03-18T00:11:26.992Z,99.99
2017-03-18T00:12:26.982Z,99.99
2017-03-18T00:13:26.957Z,99.99
2017-03-18T00:14:26.944Z,99.99
2017-03-18T00:15:26.924Z,99.99
2017-03-18T00:16:26.905Z,99.99
2017-03-18T00:17:26.891Z,99.99
2017-03-18T00:18:26.858Z,99.99
2017-03-18T00:19:26.847Z,99.99
2017-03-18T00:20:26.827Z,99.99
2017-03-18T00:21:26.798Z,99.99
2017-03-18T00:22:26.777Z,99.99
2017-03-18T00:23:26.772Z,99.99
2017-03-18T00:24:26.742Z,99.99
2017-03-18T00:25:26.721Z,99.99
2017-03-18T00:26:26.715Z,99.99
2017-03-18T00:27:26.687Z,99.99
2017-03-18T00:28:26.664Z,99.99
2017-03-18T00:29:26.645Z,99.99
2017-03-18T00:30:26.629Z,99.99
2017-03-18T00:31:26.602Z,99.99
2017-03-18T00:32:26.590Z,99.99
2017-03-18T00:33:26.584Z,99.99
2017-03-18T00:34:26.554Z,99.99
2017-03-18T00:35:26.529Z,99.99
2017-03-18T00:36:26.510Z,99.99
2017-03-18T00:37:26.506Z,99.99
2017-03-18T00:38:26.483Z,99.99
2017-03-18T00:39:26.456Z,99.99
2017-03-18T00:40:26.441Z,99.99
2017-03-18T00:41:26.428Z,99.99
2017-03-18T00:42:26.412Z,99.99
2017-03-18T00:43:26.378Z,99.99
2017-03-18T00:44:26.355Z,99.99
2017-03-18T00:45:26.344Z,99.99
2017-03-18T00:46:26.021Z,99.99
2017-03-18T00:47:26.310Z,99.99
2017-03-18T00:48:26.291Z,99.99
2017-03-18T00:49:26.263Z,99.99
2017-03-18T00:50:26.238Z,99.99
2017-03-18T00:51:25.914Z,99.99
2017-03-18T00:52:26.198Z,99.99
2017-03-18T00:53:26.188Z,99.99
2017-03-18T00:54:26.175Z,99.99
2017-03-18T00:55:26.150Z,99.99
2017-03-18T00:56:26.126Z,99.99
2017-03-18T00:57:25.815Z,99.99
2017-03-18T00:58:26.095Z,99.99
2017-03-18T00:59:26.077Z,99.99
2017-03-18T01:00:26.047Z,99.99
2017-03-18T01:01:26.036Z,99.99
2017-03-18T01:02:26.006Z,99.99
2017-03-18T01:03:26.005Z,99.99
2017-03-18T01:04:25.972Z,99.99
2017-03-18T01:05:25.964Z,99.99
2017-03-18T01:06:25.933Z,99.99
2017-03-18T01:07:25.925Z,99.99
2017-03-18T01:08:25.895Z,99.99
2017-03-18T01:09:25.888Z,99.99
2017-03-18T01:10:25.861Z,99.99
2017-03-18T01:11:25.849Z,99.99
2017-03-18T01:12:25.820Z,99.99
2017-03-18T01:13:25.816Z,99.99
2017-03-18T01:14:25.795Z,99.99
2017-03-18T01:15:25.758Z,99.99
2017-03-18T01:16:25.744Z,99.99
2017-03-18T01:17:25.737Z,99.99
2017-03-18T01:18:25.714Z,99.99
2017-03-18T01:19:25.688Z,99.99
2017-03-18T01:20:39.049Z,99.99
2017-03-18T01:21:25.844Z,99.99
2017-03-18T01:22:25.623Z,99.99
2017-03-18T01:23:40.218Z,99.99
2017-03-18T01:24:25.298Z,99.99
2017-03-18T01:25:25.567Z,99.99
2017-03-18T01:26:25.561Z,99.99
2017-03-18T01:27:25.590Z,99.99
2017-03-18T01:28:25.520Z,99.99
2017-03-18T01:29:25.502Z,99.99
2017-03-18T01:30:25.476Z,99.99
2017-03-18T01:31:25.464Z,99.99
2017-03-18T01:32:25.431Z,99.99
2017-03-18T01:33:25.413Z,99.99
2017-03-18T01:34:25.413Z,99.99
2017-03-18T01:35:25.379Z,99.99
2017-03-18T01:36:25.369Z,99.99
2017-03-18T01:37:25.336Z,99.99
2017-03-18T01:38:25.329Z,99.99
2017-03-18T01:39:25.301Z,99.99
2017-03-18T01:40:24.978Z,99.99
2017-03-18T01:41:25.266Z,99.99
2017-03-18T01:42:25.245Z,99.99
2017-03-18T01:43:25.225Z,99.99
2017-03-18T01:44:25.205Z,99.99
2017-03-18T01:45:25.185Z,99.99
2017-03-18T01:46:25.176Z,99.99
2017-03-18T01:47:25.149Z,99.99
2017-03-18T01:48:25.127Z,99.99
2017-03-18T01:49:25.111Z,99.99
2017-03-18T01:50:25.088Z,99.99
2017-03-18T01:51:25.077Z,99.99
2017-03-18T01:52:25.058Z,99.99
2017-03-18T01:53:25.259Z,99.99
2017-03-18T01:54:25.014Z,99.99
2017-03-18T01:55:24.989Z,99.99
2017-03-18T01:56:24.976Z,99.99
2017-03-18T01:57:25.168Z,99.99
2017-03-18T01:58:24.947Z,99.99
2017-03-18T01:59:24.931Z,99.99
2017-03-18T02:00:24.893Z,99.99
2017-03-18T02:01:24.887Z,99.99
2017-03-18T02:02:24.861Z,99.99
2017-03-18T02:03:24.838Z,99.99
2017-03-18T02:04:24.824Z,99.99
2017-03-18T02:05:24.799Z,99.99
2017-03-18T02:06:24.791Z,99.99
2017-03-18T02:07:24.764Z,99.99
2017-03-18T02:08:24.755Z,99.99
2017-03-18T02:09:24.736Z,99.99
2017-03-18T02:10:24.719Z,99.99
2017-03-18T02:11:24.689Z,99.99
2017-03-18T02:12:24.675Z,99.99
2017-03-18T02:13:24.654Z,99.99
2017-03-18T02:14:24.634Z,99.99
2017-03-18T02:15:24.620Z,99.99
2017-03-18T02:16:24.597Z,99.99
2017-03-18T02:17:24.584Z,99.99
2017-03-18T02:18:24.550Z,99.99
2017-03-18T02:19:24.548Z,99.99
2017-03-18T02:20:24.524Z,99.99
2017-03-18T02:21:24.510Z,99.99
2017-03-18T02:22:24.699Z,99.99
2017-03-18T02:23:24.461Z,99.99
2017-03-18T02:24:24.460Z,99.99
2017-03-18T02:25:24.436Z,99.99
2017-03-18T02:26:24.110Z,99.99
2017-03-18T02:27:24.611Z,99.99
2017-03-18T02:28:24.381Z,99.99
2017-03-18T02:29:24.356Z,99.99
2017-03-18T02:30:24.340Z,99.99
2017-03-18T02:31:24.307Z,99.99
2017-03-18T02:32:24.288Z,99.99
2017-03-18T02:33:24.282Z,99.99
2017-03-18T02:34:24.264Z,99.99
2017-03-18T02:35:24.229Z,99.99
2017-03-18T02:36:24.220Z,99.99
2017-03-18T02:37:24.202Z,99.99
2017-03-18T02:38:24.186Z,99.99
2017-03-18T02:39:24.160Z,99.99
2017-03-18T02:40:24.137Z,99.99
2017-03-18T02:41:24.127Z,99.99
2017-03-18T02:42:24.106Z,99.99
2017-03-18T02:43:24.082Z,99.99
2017-03-18T02:44:24.077Z,99.99
2017-03-18T02:45:24.048Z,99.99
2017-03-18T02:46:24.031Z,99.99
2017-03-18T02:47:24.004Z,99.99
2017-03-18T02:48:23.983Z,99.99
2017-03-18T02:49:23.965Z,99.99
2017-03-18T02:50:23.945Z,99.99
2017-03-18T02:51:23.924Z,99.99
2017-03-18T02:52:23.908Z,99.99
2017-03-18T02:53:23.904Z,99.99
2017-03-18T02:54:23.869Z,99.99
2017-03-18T02:55:37.247Z,99.99
2017-03-18T02:56:23.834Z,99.99
2017-03-18T02:57:23.810Z,99.99
2017-03-18T02:58:38.408Z,99.99
2017-03-18T02:59:23.789Z,99.99
2017-03-18T03:00:23.757Z,99.99
2017-03-18T03:01:23.734Z,99.99
2017-03-18T03:02:23.733Z,99.99
2017-03-18T03:03:23.937Z,99.99
2017-03-18T03:04:23.686Z,99.99
2017-03-18T03:05:23.658Z,99.99
2017-03-18T03:06:23.639Z,99.99
2017-03-18T03:07:23.633Z,99.99
2017-03-18T03:08:23.603Z,99.99
2017-03-18T03:09:23.597Z,99.99
2017-03-18T03:10:23.574Z,99.99
2017-03-18T03:11:23.546Z,99.99
2017-03-18T03:12:23.542Z,99.99
2017-03-18T03:13:23.514Z,99.99
2017-03-18T03:14:23.500Z,99.99
2017-03-18T03:15:23.492Z,99.99
2017-03-18T03:16:23.463Z,99.99
2017-03-18T03:17:23.451Z,99.99
2017-03-18T03:18:23.120Z,99.99
2017-03-18T03:19:23.400Z,99.99
2017-03-18T03:20:23.075Z,99.99
2017-03-18T03:21:23.367Z,99.99
2017-03-18T03:22:23.335Z,99.99
2017-03-18T03:23:23.322Z,99.99
2017-03-18T03:24:23.304Z,99.99
2017-03-18T03:25:23.291Z,99.99
2017-03-18T03:26:23.277Z,99.99
2017-03-18T03:27:23.241Z,99.99
2017-03-18T03:28:23.243Z,99.99
2017-03-18T03:29:23.209Z,99.99
2017-03-18T03:30:23.189Z,99.99
2017-03-18T03:32:23.158Z,99.99
2017-03-18T03:33:23.128Z,99.99
2017-03-18T03:34:23.116Z,99.99
2017-03-18T03:35:23.097Z,99.99
2017-03-18T03:36:23.070Z,99.99
2017-03-18T03:37:23.055Z,99.99
2017-03-18T03:38:23.036Z,99.99
2017-03-18T03:39:23.031Z,99.99
2017-03-18T03:40:23.006Z,99.99
2017-03-18T03:41:22.681Z,99.99
2017-03-18T03:42:22.971Z,99.99
2017-03-18T03:43:22.942Z,99.99
2017-03-18T03:44:22.920Z,99.99
2017-03-18T03:45:22.899Z,99.99
2017-03-18T03:46:22.881Z,99.99
2017-03-18T03:47:22.881Z,99.99
2017-03-18T03:48:22.862Z,99.99
2017-03-18T03:49:22.832Z,99.99
2017-03-18T03:50:22.819Z,99.99
2017-03-18T03:51:22.796Z,99.99
2017-03-18T03:52:22.769Z,99.99
2017-03-18T03:53:22.751Z,99.99
2017-03-18T03:54:22.739Z,99.99
2017-03-18T03:55:22.421Z,99.99
2017-03-18T03:56:22.403Z,99.99
2017-03-18T03:57:22.371Z,99.99
2017-03-18T03:58:22.359Z,99.99
2017-03-18T03:59:22.643Z,99.99
2017-03-18T04:00:22.628Z,99.99
2017-03-18T04:01:22.607Z,99.99
2017-03-18T04:02:22.594Z,99.99
2017-03-18T04:03:22.568Z,99.99
2017-03-18T04:04:22.564Z,99.99
2017-03-18T04:05:22.527Z,99.99
2017-03-18T04:06:22.200Z,99.99
2017-03-18T04:07:22.496Z,99.99
2017-03-18T04:08:22.464Z,99.99
2017-03-18T04:09:22.449Z,99.99
2017-03-18T04:10:22.424Z,99.99
2017-03-18T04:11:22.422Z,99.99
2017-03-18T04:12:22.398Z,99.99
2017-03-18T04:13:22.380Z,99.99
2017-03-18T04:14:22.364Z,99.99
2017-03-18T04:15:22.328Z,99.99
2017-03-18T04:16:22.028Z,99.99
2017-03-18T04:17:22.318Z,99.99
2017-03-18T04:18:22.289Z,99.99
2017-03-18T04:19:22.256Z,99.99
2017-03-18T04:20:22.251Z,99.99
2017-03-18T04:21:22.220Z,99.99
2017-03-18T04:22:22.207Z,99.99
2017-03-18T04:23:22.175Z,99.99
2017-03-18T04:24:22.154Z,99.99
2017-03-18T04:25:22.158Z,99.99
2017-03-18T04:26:22.130Z,99.99
2017-03-18T04:27:22.123Z,99.99
2017-03-18T04:28:22.089Z,99.99
2017-03-18T04:29:22.076Z,99.99
2017-03-18T04:30:22.059Z,99.99
2017-03-18T04:31:22.046Z,99.99
2017-03-18T04:32:22.004Z,99.99
2017-03-18T04:33:21.688Z,99.99
2017-03-18T04:34:21.975Z,99.99
2017-03-18T04:35:21.944Z,99.99
2017-03-18T04:36:21.940Z,99.99
2017-03-18T04:37:21.914Z,99.99
2017-03-18T04:38:21.889Z,99.99
2017-03-18T04:39:21.882Z,99.99
2017-03-18T04:40:21.867Z,99.99
2017-03-18T04:41:21.833Z,99.99
2017-03-18T04:42:21.823Z,99.99
2017-03-18T04:43:21.810Z,99.99
2017-03-18T04:44:21.787Z,99.99
2017-03-18T04:45:21.754Z,99.99
2017-03-18T04:46:21.739Z,99.99
2017-03-18T04:47:21.737Z,99.99
2017-03-18T04:48:21.716Z,99.99
2017-03-18T04:49:21.690Z,99.99
2017-03-18T04:50:21.664Z,99.99
2017-03-18T04:51:21.644Z,99.99
2017-03-18T04:52:21.624Z,99.99
2017-03-18T04:53:21.618Z,99.99
2017-03-18T04:54:21.598Z,99.99
2017-03-18T04:55:21.577Z,99.99
2017-03-18T04:56:21.562Z,99.99
2017-03-18T04:57:21.543Z,99.99
2017-03-18T04:58:21.517Z,99.99
2017-03-18T04:59:21.498Z,99.99
2017-03-18T05:00:21.470Z,99.99
2017-03-18T05:01:21.453Z,99.99
2017-03-18T05:02:21.444Z,99.99
2017-03-18T05:03:21.431Z,99.99
2017-03-18T05:04:21.411Z,99.99
2017-03-18T05:05:21.385Z,99.99
2017-03-18T05:06:21.368Z,99.99
2017-03-18T05:07:21.337Z,99.99
2017-03-18T05:08:21.318Z,99.99
2017-03-18T05:09:21.304Z,99.99
2017-03-18T05:10:21.293Z,99.99
2017-03-18T05:11:21.261Z,99.99
2017-03-18T05:12:21.242Z,99.99
2017-03-18T05:13:21.235Z,99.99
2017-03-18T05:14:20.912Z,99.99
2017-03-18T05:15:20.892Z,99.99
2017-03-18T05:16:21.162Z,99.99
2017-03-18T05:17:20.882Z,99.99
2017-03-18T05:18:21.122Z,99.99
2017-03-18T05:19:21.108Z,99.99
2017-03-18T05:20:21.083Z,99.99
2017-03-18T05:21:21.064Z,99.99
2017-03-18T05:22:21.045Z,99.99
2017-03-18T05:23:21.026Z,99.99
2017-03-18T05:24:21.011Z,99.99
2017-03-18T05:25:21.000Z,99.99
2017-03-18T05:26:20.973Z,99.99
2017-03-18T05:27:20.965Z,99.99
2017-03-18T05:28:20.935Z,99.99
2017-03-18T05:29:20.915Z,99.99
2017-03-18T05:30:20.907Z,99.99
2017-03-18T05:31:20.883Z,99.99
2017-03-18T05:32:20.863Z,99.99
2017-03-18T05:33:20.837Z,99.99
2017-03-18T05:34:20.826Z,99.99
2017-03-18T05:35:20.808Z,99.99
2017-03-18T05:36:20.786Z,99.99
2017-03-18T05:37:20.761Z,99.99
2017-03-18T05:38:20.746Z,99.99
2017-03-18T05:39:20.729Z,99.99
2017-03-18T05:40:20.706Z,99.99
2017-03-18T05:41:20.680Z,99.99
2017-03-18T05:42:20.661Z,99.99
2017-03-18T05:43:20.651Z,99.99
2017-03-18T05:44:20.631Z,99.99
2017-03-18T05:45:20.600Z,99.99
2017-03-18T05:46:20.276Z,99.99
2017-03-18T05:47:20.571Z,99.99
2017-03-18T05:48:20.555Z,99.99
2017-03-18T05:49:20.525Z,99.99
2017-03-18T05:50:20.505Z,99.99
2017-03-18T05:51:20.514Z,99.99
2017-03-18T05:52:20.461Z,99.99
2017-03-18T05:53:20.459Z,99.99
2017-03-18T05:54:20.431Z,99.99
2017-03-18T05:55:20.414Z,99.99
2017-03-18T05:56:20.380Z,99.99
2017-03-18T05:57:20.365Z,99.99
2017-03-18T05:58:20.355Z,99.99
2017-03-18T05:59:20.339Z,99.99
2017-03-18T06:00:20.316Z,99.99
2017-03-18T06:01:20.327Z,99.99
2017-03-18T06:02:20.263Z,99.99
2017-03-18T06:03:19.953Z,99.99
2017-03-18T06:04:20.223Z,99.99
2017-03-18T06:05:20.217Z,99.99
2017-03-18T06:06:20.182Z,99.99
2017-03-18T06:07:20.175Z,99.99
2017-03-18T06:08:20.149Z,99.99
2017-03-18T06:09:20.129Z,99.99
2017-03-18T06:10:20.117Z,99.99
2017-03-18T06:11:20.096Z,99.99
2017-03-18T06:12:19.774Z,99.99
2017-03-18T06:13:20.054Z,99.99
2017-03-18T06:14:20.029Z,99.99
2017-03-18T06:15:20.004Z,99.99
2017-03-18T06:16:19.996Z,99.99
2017-03-18T06:17:19.965Z,99.99
2017-03-18T06:18:19.682Z,99.99
2017-03-18T06:19:19.936Z,99.99
2017-03-18T06:20:19.901Z,99.99
2017-03-18T06:21:19.879Z,99.99
2017-03-18T06:22:19.561Z,99.99
2017-03-18T06:23:19.544Z,99.99
2017-03-18T06:24:19.825Z,99.99
2017-03-18T06:25:19.808Z,99.99
2017-03-18T06:26:19.778Z,99.99
2017-03-18T06:27:19.762Z,99.99
2017-03-18T06:28:19.439Z,99.99
2017-03-18T06:29:19.723Z,99.99
2017-03-18T06:30:19.709Z,99.99
2017-03-18T06:31:19.692Z,99.99
2017-03-18T06:32:19.656Z,99.99
2017-03-18T06:33:19.652Z,99.99
2017-03-18T06:34:19.619Z,99.99
2017-03-18T06:35:19.302Z,99.99
2017-03-18T06:36:19.577Z,99.99
2017-03-18T06:37:19.268Z,99.99
2017-03-18T06:38:19.552Z,99.99
2017-03-18T06:39:19.216Z,99.99
2017-03-18T06:40:19.499Z,99.99
2017-03-18T06:41:19.182Z,99.99
2017-03-18T06:42:19.455Z,99.99
2017-03-18T06:43:19.134Z,99.99
2017-03-18T06:44:19.121Z,99.99
2017-03-18T06:45:19.094Z,99.99
2017-03-18T06:46:19.371Z,99.99
2017-03-18T06:47:19.353Z,99.99
2017-03-18T06:48:19.339Z,99.99
2017-03-18T06:49:19.317Z,99.99
2017-03-18T06:50:19.301Z,99.99
2017-03-18T06:51:19.274Z,99.99
2017-03-18T06:52:19.263Z,99.99
2017-03-18T06:53:18.937Z,99.99
2017-03-18T06:54:18.923Z,99.99
2017-03-18T06:55:19.187Z,99.99
2017-03-18T06:56:19.168Z,99.99
2017-03-18T06:57:19.163Z,99.99
2017-03-18T06:58:19.146Z,99.99
2017-03-18T06:59:19.110Z,99.99
2017-03-18T07:00:19.092Z,99.99
2017-03-18T07:01:19.087Z,99.99
2017-03-18T07:02:18.750Z,99.99
2017-03-18T07:03:19.037Z,99.99
2017-03-18T07:04:19.021Z,99.99
2017-03-18T07:05:18.698Z,99.99
2017-03-18T07:06:18.971Z,99.99
2017-03-18T07:07:18.650Z,99.99
2017-03-18T07:08:18.943Z,99.99
2017-03-18T07:09:18.921Z,99.99
2017-03-18T07:10:18.890Z,99.99
2017-03-18T07:11:18.577Z,99.99
2017-03-18T07:12:18.547Z,99.99
2017-03-18T07:13:18.527Z,99.99
2017-03-18T07:14:18.519Z,99.99
2017-03-18T07:15:18.790Z,99.99
2017-03-18T07:16:18.773Z,99.99
2017-03-18T07:17:18.756Z,99.99
2017-03-18T07:18:18.436Z,99.99
2017-03-18T07:19:18.746Z,99.99
2017-03-18T07:20:18.699Z,99.99
2017-03-18T07:21:18.681Z,99.99
2017-03-18T07:22:18.656Z,99.99
2017-03-18T07:23:18.628Z,99.99
2017-03-18T07:24:18.607Z,99.99
2017-03-18T07:25:18.585Z,99.99
2017-03-18T07:26:18.569Z,99.99
2017-03-18T07:27:18.551Z,99.99
2017-03-18T07:28:18.536Z,99.99
2017-03-18T07:29:18.510Z,99.99
2017-03-18T07:30:18.503Z,99.99
2017-03-18T07:31:18.466Z,99.99
2017-03-18T07:32:18.449Z,99.99
2017-03-18T07:33:18.442Z,99.99
2017-03-18T07:34:18.422Z,99.99
2017-03-18T07:35:18.387Z,99.99
2017-03-18T07:36:18.379Z,99.99
2017-03-18T07:37:18.048Z,99.99
2017-03-18T07:38:18.343Z,99.99
2017-03-18T07:39:18.314Z,99.99
2017-03-18T07:40:18.283Z,99.99
2017-03-18T07:41:18.277Z,99.99
2017-03-18T07:42:18.260Z,99.99
2017-03-18T07:43:18.240Z,99.99
2017-03-18T07:44:18.204Z,99.99
2017-03-18T07:45:17.885Z,99.99
2017-03-18T07:46:18.181Z,99.99
2017-03-18T07:47:18.158Z,99.99
2017-03-18T07:48:18.152Z,99.99
2017-03-18T07:49:18.131Z,99.99
2017-03-18T07:50:18.101Z,99.99
2017-03-18T07:51:18.079Z,99.6
2017-03-18T07:52:18.061Z,99.79
2017-03-18T07:53:18.042Z,99.98
2017-03-18T07:54:18.022Z,99.04
2017-03-18T07:55:17.983Z,99.32
2017-03-18T07:56:17.982Z,99.13
2017-03-18T07:57:17.945Z,98.94
2017-03-18T07:58:17.931Z,98.47
2017-03-18T07:59:17.910Z,98.19
2017-03-18T08:00:17.897Z,98.28
2017-03-18T08:01:17.877Z,97.53
2017-03-18T08:02:17.863Z,97.72
2017-03-18T08:03:17.832Z,97.72
2017-03-18T08:04:17.821Z,97.62
2017-03-18T08:05:17.787Z,97.34
2017-03-18T08:06:17.781Z,96.96
2017-03-18T08:07:17.765Z,96.39
2017-03-18T08:08:17.745Z,96.39
2017-03-18T08:09:17.708Z,96.86
2017-03-18T08:10:17.701Z,96.2
2017-03-18T08:11:17.668Z,95.73
2017-03-18T08:12:17.645Z,95.83
2017-03-18T08:13:17.646Z,95.36
2017-03-18T08:14:17.611Z,93.75
2017-03-18T08:15:17.587Z,93.89
2017-03-18T08:16:17.583Z,93.66
2017-03-18T08:17:17.560Z,93.75
2017-03-18T08:18:17.532Z,93.84
2017-03-18T08:19:17.526Z,93.66
2017-03-18T08:20:17.495Z,93.66
2017-03-18T08:21:17.473Z,93.37
2017-03-18T08:22:17.471Z,93.75
2017-03-18T08:23:17.436Z,93.28
2017-03-18T08:24:17.433Z,93.09
2017-03-18T08:25:17.401Z,93.28
2017-03-18T08:26:17.370Z,93.09
2017-03-18T08:27:17.362Z,93.18
2017-03-18T08:28:17.337Z,92.71
2017-03-18T08:29:17.317Z,92.71
2017-03-18T08:30:17.307Z,92.43
2017-03-18T08:31:17.277Z,91.96
2017-03-18T08:32:17.266Z,91.15
2017-03-18T08:33:17.240Z,91.06
2017-03-18T08:34:17.232Z,90.77
2017-03-18T08:35:17.200Z,90.68
2017-03-18T08:36:17.177Z,90.92
2017-03-18T08:37:17.173Z,90.16
2017-03-18T08:38:17.150Z,90.64
2017-03-18T08:39:17.136Z,90.35
2017-03-18T08:40:17.100Z,89.26
2017-03-18T08:41:17.092Z,89.07
2017-03-18T08:42:17.058Z,89.26
2017-03-18T08:43:17.050Z,88.7
2017-03-18T08:44:17.032Z,88.51
2017-03-18T08:45:17.004Z,88.32
2017-03-18T08:46:16.996Z,88.51
2017-03-18T08:47:16.961Z,88.13
2017-03-18T08:48:16.650Z,88.51
2017-03-18T08:49:16.922Z,88.13
2017-03-18T08:50:16.913Z,88.04
2017-03-18T08:51:16.896Z,86.05
2017-03-18T08:52:16.863Z,85.96
2017-03-18T08:53:16.843Z,85.58
2017-03-18T08:54:16.826Z,85.77
2017-03-18T08:55:16.805Z,85.68
2017-03-18T08:56:16.788Z,85.68
2017-03-18T08:57:16.778Z,84.82
2017-03-18T08:58:16.455Z,83.97
2017-03-18T08:59:16.728Z,83.22
2017-03-18T09:00:16.709Z,83.5
2017-03-18T09:01:16.698Z,83.4
2017-03-18T09:02:16.683Z,82.75
2017-03-18T09:03:16.656Z,82.56
2017-03-18T09:04:16.637Z,82.28
2017-03-18T09:05:16.414Z,82.56
2017-03-18T09:06:16.607Z,82.56
2017-03-18T09:07:16.577Z,81.42
2017-03-18T09:08:16.559Z,81.9
2017-03-18T09:09:16.553Z,81.71
2017-03-18T09:10:16.521Z,81.61
2017-03-18T09:11:16.498Z,81.42
2017-03-18T09:12:16.491Z,81.42
2017-03-18T09:13:16.475Z,81.33
2017-03-18T09:14:16.457Z,80.76
2017-03-18T09:15:16.418Z,80.76
2017-03-18T09:16:16.407Z,80.38
2017-03-18T09:17:16.084Z,80.19
2017-03-18T09:18:16.376Z,80.29
2017-03-18T09:19:16.359Z,79.91
2017-03-18T09:20:16.326Z,80.48
2017-03-18T09:21:16.314Z,79.63
2017-03-18T09:22:16.299Z,78.97
2017-03-18T09:23:16.271Z,78.59
2017-03-18T09:24:15.952Z,78.59
2017-03-18T09:25:16.230Z,78.87
2017-03-18T09:26:16.223Z,78.97
2017-03-18T09:27:16.201Z,78.68
2017-03-18T09:28:16.189Z,78.5
2017-03-18T09:29:16.159Z,78.12
2017-03-18T09:30:16.146Z,77.64
2017-03-18T09:31:16.111Z,78.4
2017-03-18T09:32:16.104Z,78.5
2017-03-18T09:33:16.088Z,77.55
2017-03-18T09:34:16.055Z,78.12
2017-03-18T09:35:16.056Z,77.83
2017-03-18T09:36:16.028Z,76.7
2017-03-18T09:37:16.014Z,76.42
2017-03-18T09:38:15.980Z,75.95
2017-03-18T09:39:15.965Z,75
2017-03-18T09:40:15.945Z,74.53
2017-03-18T09:41:15.933Z,74.53
2017-03-18T09:42:15.905Z,73.96
2017-03-18T09:43:15.899Z,73.11
2017-03-18T09:44:15.871Z,72.83
2017-03-18T09:45:15.847Z,73.02
2017-03-18T09:46:15.842Z,73.02
2017-03-18T09:47:15.506Z,73.02
2017-03-18T09:48:15.791Z,72.45
2017-03-18T09:49:15.781Z,72.73
2017-03-18T09:50:15.769Z,71.5
2017-03-18T09:51:15.734Z,70.56
2017-03-18T09:52:15.721Z,69.81
2017-03-18T09:53:15.693Z,69.81
2017-03-18T09:54:15.690Z,69.71
2017-03-18T09:55:15.656Z,68.86
2017-03-18T09:56:15.641Z,67.16
2017-03-18T09:57:15.324Z,67.07
2017-03-18T09:58:15.598Z,64.79
2017-03-18T09:59:15.585Z,64.79
2017-03-18T10:00:15.563Z,64.51
2017-03-18T10:01:15.546Z,64.23
2017-03-18T10:02:15.539Z,62.72
2017-03-18T10:03:15.509Z,62.18
2017-03-18T10:04:15.490Z,61.77
2017-03-18T10:05:15.172Z,61.3
2017-03-18T10:06:15.461Z,61.24
2017-03-18T10:07:15.446Z,61.02
2017-03-18T10:08:15.414Z,60.86
2017-03-18T10:09:15.398Z,60.77
2017-03-18T10:10:15.375Z,57.93
2017-03-18T10:11:15.354Z,55.76
2017-03-18T10:12:15.340Z,55
2017-03-18T10:13:15.336Z,55.29
2017-03-18T10:14:15.001Z,55.29
2017-03-18T10:15:15.287Z,55.38
2017-03-18T10:16:15.262Z,55.44
2017-03-18T10:17:15.252Z,55.63
2017-03-18T10:18:15.226Z,55.54
2017-03-18T10:19:15.221Z,54.97
2017-03-18T10:20:15.185Z,54.6
2017-03-18T10:21:15.171Z,54.41
2017-03-18T10:22:15.177Z,54.15
2017-03-18T10:23:15.129Z,53.3
2017-03-18T10:24:15.125Z,52.45
2017-03-18T10:25:15.091Z,50.56
2017-03-18T10:26:15.089Z,48.57
2017-03-18T10:27:14.762Z,48.29
2017-03-18T10:28:15.044Z,48.01
2017-03-18T10:29:15.027Z,47.82
2017-03-18T10:30:15.011Z,48.1
2017-03-18T10:31:14.998Z,48.08
2017-03-18T10:32:14.965Z,47.91
2017-03-18T10:33:14.951Z,47.91
2017-03-18T10:34:14.945Z,47.8
2017-03-18T10:35:14.923Z,47.89
2017-03-18T10:36:14.907Z,47.99
2017-03-18T10:37:14.884Z,47.8
2017-03-18T10:38:14.861Z,47.61
2017-03-18T10:39:14.839Z,47.7
2017-03-18T10:40:14.831Z,47.61
2017-03-18T10:41:14.807Z,47.61
2017-03-18T10:42:14.795Z,47.7
2017-03-18T10:43:14.764Z,47.51
2017-03-18T10:44:14.749Z,46.75
2017-03-18T10:45:14.737Z,46.78
2017-03-18T10:46:14.709Z,46.94
2017-03-18T10:47:14.690Z,46.69
2017-03-18T10:48:14.685Z,46.5
2017-03-18T10:49:14.649Z,46.5
2017-03-18T10:50:14.631Z,46.31
2017-03-18T10:51:14.616Z,46.31
2017-03-18T10:52:14.606Z,46.4
2017-03-18T10:53:14.587Z,46.75
2017-03-18T10:54:14.569Z,46.37
2017-03-18T10:55:14.550Z,46.56
2017-03-18T10:56:14.530Z,46.47
2017-03-18T10:57:14.514Z,46.47
2017-03-18T10:58:14.485Z,46.66
2017-03-18T10:59:14.467Z,46.19
2017-03-18T11:00:14.446Z,46.19
2017-03-18T11:01:14.428Z,45.9
2017-03-18T11:02:14.425Z,46.09
2017-03-18T11:03:14.404Z,46.47
2017-03-18T11:04:14.384Z,46.37
2017-03-18T11:05:14.359Z,46
2017-03-18T11:06:14.335Z,45.9
2017-03-18T11:07:14.319Z,45.34
2017-03-18T11:08:14.313Z,45.45
2017-03-18T11:09:14.279Z,45.83
2017-03-18T11:10:14.283Z,45.72
2017-03-18T11:11:14.255Z,45.9
2017-03-18T11:12:14.238Z,46
2017-03-18T11:13:14.215Z,45.62
2017-03-18T11:14:14.199Z,45.72
2017-03-18T11:15:14.174Z,46
2017-03-18T11:16:14.150Z,45.62
2017-03-18T11:17:14.141Z,45.72
2017-03-18T11:18:14.150Z,45.81
2017-03-18T11:19:14.105Z,45.62
2017-03-18T11:20:14.084Z,45.81
2017-03-18T11:21:14.054Z,46
2017-03-18T11:22:14.052Z,45.72
2017-03-18T11:23:14.023Z,45.72
2017-03-18T11:24:14.011Z,45.81
2017-03-18T11:25:13.980Z,45.72
2017-03-18T11:26:13.974Z,45.9
2017-03-18T11:27:13.944Z,46
2017-03-18T11:28:13.936Z,45.9
2017-03-18T11:29:13.910Z,45.9
2017-03-18T11:30:13.895Z,45.72
2017-03-18T11:31:13.880Z,45.9
2017-03-18T11:32:13.859Z,45.9
2017-03-18T11:33:13.843Z,45.9
2017-03-18T11:34:13.823Z,45.81
2017-03-18T11:35:13.803Z,45.72
2017-03-18T11:36:13.780Z,46.09
2017-03-18T11:37:13.771Z,46.19
2017-03-18T11:38:13.754Z,46.56
2017-03-18T11:39:13.739Z,46
2017-03-18T11:40:13.704Z,45.81
2017-03-18T11:41:13.684Z,45.81
2017-03-18T11:42:13.664Z,46
2017-03-18T11:43:13.648Z,46.09
2017-03-18T11:44:13.627Z,46
2017-03-18T11:45:13.605Z,45.9
2017-03-18T11:46:13.603Z,46.19
2017-03-18T11:47:13.587Z,46.09
2017-03-18T11:48:13.565Z,46
2017-03-18T11:49:13.543Z,46.09
2017-03-18T11:50:13.524Z,46.19
2017-03-18T11:51:13.499Z,46.37
2017-03-18T11:52:13.480Z,46.56
2017-03-18T11:53:13.470Z,46.09
2017-03-18T11:54:13.146Z,46.19
2017-03-18T11:55:13.433Z,46.19
2017-03-18T11:56:13.402Z,46
2017-03-18T11:57:13.386Z,46.37
2017-03-18T11:58:13.366Z,46
2017-03-18T11:59:13.362Z,46.19
2017-03-18T12:00:13.327Z,46.19
2017-03-18T12:01:13.320Z,46.28
2017-03-18T12:02:13.300Z,46.19
2017-03-18T12:03:13.280Z,46.66
2017-03-18T12:04:13.266Z,46.94
2017-03-18T12:05:13.236Z,47.32
2017-03-18T12:06:13.225Z,47.61
2017-03-18T12:07:13.198Z,48.65
2017-03-18T12:08:13.179Z,49.66
2017-03-18T12:09:13.175Z,50.04
2017-03-18T12:10:13.140Z,50.13
2017-03-18T12:11:13.123Z,50.04
2017-03-18T12:12:13.105Z,50.23
2017-03-18T12:13:13.099Z,50.23
2017-03-18T12:14:13.077Z,50.32
2017-03-18T12:15:13.044Z,50.16
2017-03-18T12:16:13.027Z,50.32
2017-03-18T12:17:13.014Z,50.23
2017-03-18T12:18:12.982Z,50.23
2017-03-18T12:19:12.979Z,50.32
2017-03-18T12:20:12.980Z,50.6
2017-03-18T12:21:12.937Z,50.6
2017-03-18T12:22:12.911Z,50.42
2017-03-18T12:23:12.894Z,50.51
2017-03-18T12:24:12.885Z,50.79
2017-03-18T12:25:12.855Z,50.42
2017-03-18T12:26:12.828Z,50.6
2017-03-18T12:27:12.824Z,50.63
2017-03-18T12:28:12.804Z,50.51
2017-03-18T12:29:12.787Z,50.53
2017-03-18T12:30:12.753Z,50.7
2017-03-18T12:31:12.730Z,51.17
2017-03-18T12:32:12.724Z,50.89
2017-03-18T12:33:12.705Z,50.89
2017-03-18T12:34:12.674Z,50.7
2017-03-18T12:35:12.658Z,50.79
2017-03-18T12:36:12.640Z,50.98
2017-03-18T12:37:12.629Z,51.54
2017-03-18T12:38:12.609Z,51.54
2017-03-18T12:39:12.580Z,51.36
2017-03-18T12:40:12.257Z,51.26
2017-03-18T12:41:12.555Z,51.36
2017-03-18T12:42:12.522Z,51.45
2017-03-18T12:43:12.514Z,51.92
2017-03-18T12:44:12.494Z,52.21
2017-03-18T12:45:12.473Z,51.92
2017-03-18T12:46:12.451Z,52.02
2017-03-18T12:47:12.127Z,52.02
2017-03-18T12:48:12.405Z,52.02
2017-03-18T12:49:12.395Z,53.06
2017-03-18T12:50:12.364Z,52.49
2017-03-18T12:51:12.344Z,52.11
2017-03-18T12:52:12.322Z,52.02
2017-03-18T12:53:12.343Z,52.11
2017-03-18T12:54:12.283Z,52.3
2017-03-18T12:55:12.278Z,52.68
2017-03-18T12:56:12.243Z,52.49